createdAt,value
2022-11-16T00:01:07.387Z,12.13
2022-11-16T00:05:08.786Z,11.97
2022-11-16T00:09:22.039Z,12.37
2022-11-16T00:13:22.659Z,11.77
2022-11-16T00:17:25.909Z,11.50
2022-11-16T00:21:26.631Z,10.20
2022-11-16T00:25:26.711Z,9.90
2022-11-16T00:29:30.188Z,9.87
2022-11-16T00:33:33.577Z,9.87
2022-11-16T00:37:33.927Z,9.23
2022-11-16T00:41:34.211Z,9.63
2022-11-16T00:45:34.307Z,10.60
2022-11-16T00:49:38.492Z,12.73
2022-11-16T00:53:39.389Z,10.83
2022-11-16T00:57:39.728Z,10.47
2022-11-16T01:01:39.992Z,10.47
2022-11-16T01:05:43.137Z,11.93
2022-11-16T01:09:43.244Z,13.13
2022-11-16T01:13:43.351Z,12.93
2022-11-16T01:17:45.552Z,14.17
2022-11-16T01:21:48.244Z,13.90
2022-11-16T01:25:48.408Z,12.73
2022-11-16T01:29:48.692Z,11.57
2022-11-16T01:33:49.321Z,11.43
2022-11-16T01:38:05.023Z,10.90
2022-11-16T01:42:07.577Z,13.30
2022-11-16T01:46:08.184Z,14.10
2022-11-16T01:50:15.974Z,13.67
2022-11-16T01:54:20.566Z,13.60
2022-11-16T01:58:33.290Z,16.57
2022-11-16T02:02:44.788Z,14.60
2022-11-16T02:07:14.527Z,16.13
2022-11-16T02:11:42.719Z,15.93
2022-11-16T02:15:52.180Z,13.57
2022-11-16T02:20:45.230Z,15.10
2022-11-16T02:24:59.572Z,18.90
2022-11-16T02:29:23.694Z,18.67
2022-11-16T02:33:33.367Z,17.03
2022-11-16T02:37:41.210Z,16.37
2022-11-16T02:41:48.486Z,15.10
2022-11-16T02:45:57.176Z,15.83
2022-11-16T02:50:08.388Z,15.23
2022-11-16T02:54:14.399Z,14.57
2022-11-16T02:58:24.075Z,14.10
2022-11-16T03:02:39.178Z,13.57
2022-11-16T03:06:44.181Z,13.57
2022-11-16T03:11:01.032Z,14.50
2022-11-16T03:15:07.626Z,14.60
2022-11-16T03:19:16.387Z,15.53
2022-11-16T03:23:17.582Z,14.00
2022-11-16T03:27:31.779Z,14.60
2022-11-16T03:31:39.182Z,13.87
2022-11-16T03:35:51.972Z,14.03
2022-11-16T03:39:55.473Z,15.57
2022-11-16T03:43:59.595Z,14.70
2022-11-16T03:48:00.073Z,13.50
2022-11-16T03:52:03.160Z,14.27
2022-11-16T03:56:04.812Z,13.13
2022-11-16T04:00:05.246Z,13.77
2022-11-16T04:04:34.218Z,12.77
2022-11-16T04:08:49.812Z,13.20
2022-11-16T04:13:02.815Z,12.70
2022-11-16T04:17:15.501Z,12.63
2022-11-16T04:21:37.202Z,12.80
2022-11-16T04:25:43.714Z,13.57
2022-11-16T04:29:51.220Z,12.60
2022-11-16T04:34:06.681Z,13.13
2022-11-16T04:38:06.944Z,12.80
2022-11-16T04:42:22.415Z,11.97
2022-11-16T04:46:37.482Z,12.00
2022-11-16T04:50:38.443Z,12.27
2022-11-16T04:54:39.838Z,12.70
2022-11-16T04:58:43.260Z,12.13
2022-11-16T05:02:44.273Z,11.40
2022-11-16T05:06:44.528Z,11.30
2022-11-16T05:10:45.167Z,11.70
2022-11-16T05:14:49.365Z,12.03
2022-11-16T05:19:11.129Z,12.90
2022-11-16T05:23:32.523Z,13.43
2022-11-16T05:27:38.603Z,13.10
2022-11-16T05:31:42.159Z,13.77
2022-11-16T05:35:42.975Z,12.77
2022-11-16T05:39:43.503Z,12.83
2022-11-16T05:43:44.024Z,13.90
2022-11-16T05:47:54.594Z,13.50
2022-11-16T05:51:55.392Z,13.27
2022-11-16T05:55:56.027Z,13.83
2022-11-16T05:59:57.361Z,14.13
2022-11-16T06:04:03.140Z,13.83
2022-11-16T06:08:05.492Z,13.33
2022-11-16T06:12:09.345Z,13.40
2022-11-16T06:16:11.082Z,13.67
2022-11-16T06:20:15.267Z,12.80
2022-11-16T06:24:16.912Z,13.40
2022-11-16T06:28:17.523Z,13.13
2022-11-16T06:32:17.710Z,12.63
2022-11-16T06:36:20.474Z,12.83
2022-11-16T06:40:21.922Z,15.47
2022-11-16T06:44:22.472Z,14.10
2022-11-16T06:48:31.225Z,15.93
2022-11-16T06:52:34.507Z,16.30
2022-11-16T06:56:37.431Z,17.57
2022-11-16T07:00:37.790Z,16.33
2022-11-16T07:04:38.468Z,14.00
2022-11-16T07:08:41.888Z,13.43
2022-11-16T07:12:43.892Z,14.10
2022-11-16T07:16:44.966Z,13.77
2022-11-16T07:20:45.180Z,14.27
2022-11-16T07:24:47.980Z,13.53
2022-11-16T07:28:48.811Z,14.20
2022-11-16T07:32:52.890Z,12.73
2022-11-16T07:37:05.683Z,12.77
2022-11-16T07:41:11.941Z,12.73
2022-11-16T07:45:20.437Z,11.97
2022-11-16T07:49:31.292Z,11.87
2022-11-16T07:53:38.501Z,12.50
2022-11-16T07:57:41.378Z,11.50
2022-11-16T08:01:42.796Z,12.33
2022-11-16T08:05:44.820Z,12.13
2022-11-16T08:09:45.551Z,11.40
2022-11-16T08:13:50.836Z,11.90
2022-11-16T08:17:52.459Z,11.07
2022-11-16T08:21:52.586Z,9.80
2022-11-16T08:25:53.410Z,9.93
2022-11-16T08:29:56.242Z,10.53
2022-11-16T08:33:57.233Z,10.30
2022-11-16T08:37:57.462Z,10.50
2022-11-16T08:42:00.170Z,9.67
2022-11-16T08:46:03.343Z,10.37
2022-11-16T08:50:04.271Z,8.83
2022-11-16T08:54:06.475Z,9.23
2022-11-16T08:58:10.175Z,10.20
2022-11-16T09:02:15.497Z,9.50
2022-11-16T09:06:16.859Z,9.80
2022-11-16T09:10:19.125Z,9.83
2022-11-16T09:14:19.229Z,8.07
2022-11-16T09:18:21.886Z,8.53
2022-11-16T09:22:22.033Z,9.37
2022-11-16T09:26:23.329Z,8.73
2022-11-16T09:30:23.698Z,9.30
2022-11-16T09:34:26.676Z,7.40
2022-11-16T09:38:40.309Z,7.00
2022-11-16T09:43:02.265Z,6.10
2022-11-16T09:47:04.971Z,5.67
2022-11-16T09:51:15.155Z,6.87
2022-11-16T09:55:29.116Z,7.47
2022-11-16T09:59:34.761Z,7.27
2022-11-16T10:03:46.280Z,6.70
2022-11-16T10:07:53.407Z,7.70
2022-11-16T10:12:17.720Z,10.43
2022-11-16T10:16:31.249Z,6.40
2022-11-16T10:20:59.984Z,7.30
2022-11-16T10:25:12.279Z,6.57
2022-11-16T10:29:36.582Z,5.90
2022-11-16T10:33:40.743Z,6.80
2022-11-16T10:37:48.974Z,7.63
2022-11-16T10:41:53.278Z,10.40
2022-11-16T10:46:03.161Z,10.00
2022-11-16T10:50:08.125Z,7.40
2022-11-16T10:54:16.011Z,9.63
2022-11-16T10:58:18.733Z,6.80
2022-11-16T11:02:36.547Z,6.90
2022-11-16T11:06:37.056Z,6.30
2022-11-16T11:10:41.121Z,6.30
2022-11-16T11:14:43.835Z,7.80
2022-11-16T11:18:43.947Z,6.70
2022-11-16T11:22:52.475Z,7.73
2022-11-16T11:26:57.044Z,6.20
2022-11-16T11:31:05.682Z,6.40
2022-11-16T11:35:08.001Z,6.30
2022-11-16T11:39:28.347Z,7.43
2022-11-16T11:43:29.827Z,7.80
2022-11-16T11:48:00.712Z,7.00
2022-11-16T11:52:12.108Z,8.40
2022-11-16T11:56:15.369Z,6.13
2022-11-16T12:00:18.515Z,6.90
2022-11-16T12:04:57.661Z,6.13
2022-11-16T12:09:19.207Z,6.23
2022-11-16T12:13:45.489Z,5.50
2022-11-16T12:18:00.757Z,6.07
2022-11-16T12:22:23.716Z,9.43
2022-11-16T12:26:36.981Z,11.47
2022-11-16T12:30:49.010Z,7.90
2022-11-16T12:35:19.765Z,6.27
2022-11-16T12:39:30.018Z,6.07
2022-11-16T12:43:43.975Z,5.00
2022-11-16T12:48:08.714Z,5.60
2022-11-16T12:52:29.272Z,5.33
2022-11-16T12:56:49.061Z,5.17
2022-11-16T13:01:07.109Z,5.17
2022-11-16T13:05:16.425Z,4.80
2022-11-16T13:09:23.972Z,4.33
2022-11-16T13:13:38.823Z,4.73
2022-11-16T13:17:42.479Z,4.30
2022-11-16T13:21:56.476Z,4.40
2022-11-16T13:26:10.212Z,4.73
2022-11-16T13:30:22.997Z,7.67
2022-11-16T13:34:29.013Z,7.23
2022-11-16T13:38:54.926Z,6.77
2022-11-16T13:43:22.690Z,7.37
2022-11-16T13:47:30.731Z,6.73
2022-11-16T13:51:30.982Z,6.80
2022-11-16T13:55:35.317Z,6.43
2022-11-16T13:59:39.141Z,6.00
2022-11-16T14:03:44.757Z,8.67
2022-11-16T14:07:47.489Z,7.00
2022-11-16T14:11:47.642Z,7.20
2022-11-16T14:15:47.813Z,9.30
2022-11-16T14:19:59.496Z,9.30
2022-11-16T14:24:27.246Z,6.90
2022-11-16T14:28:59.232Z,9.97
2022-11-16T14:33:01.389Z,9.43
2022-11-16T14:37:04.798Z,8.30
2022-11-16T14:41:08.933Z,11.17
2022-11-16T14:45:19.425Z,9.60
2022-11-16T14:49:22.067Z,8.27
2022-11-16T14:53:24.962Z,8.93
2022-11-16T14:57:27.606Z,10.13
2022-11-16T15:01:33.094Z,11.03
2022-11-16T15:05:39.323Z,10.23
2022-11-16T15:09:47.045Z,10.13
2022-11-16T15:13:50.181Z,10.23
2022-11-16T15:18:09.364Z,11.07
2022-11-16T15:22:25.591Z,17.10
2022-11-16T15:26:28.359Z,11.13
2022-11-16T15:30:33.075Z,14.07
2022-11-16T15:34:35.105Z,16.97
2022-11-16T15:38:37.641Z,17.40
2022-11-16T15:42:43.669Z,13.70
2022-11-16T15:46:47.199Z,16.63
2022-11-16T15:51:04.312Z,12.97
2022-11-16T15:55:07.686Z,14.23
2022-11-16T15:59:25.347Z,13.43
2022-11-16T16:03:29.090Z,11.57
2022-11-16T16:07:40.039Z,14.67
2022-11-16T16:11:40.311Z,15.20
2022-11-16T16:15:43.197Z,20.13
2022-11-16T16:19:47.524Z,16.73
2022-11-16T16:23:50.065Z,21.50
2022-11-16T16:27:50.169Z,12.87
2022-11-16T16:31:52.835Z,14.30
2022-11-16T16:35:52.944Z,17.87
2022-11-16T16:39:53.036Z,29.07
2022-11-16T16:43:53.114Z,27.97
2022-11-16T16:47:55.816Z,18.60
2022-11-16T16:51:56.033Z,25.27
2022-11-16T16:55:56.158Z,24.07
2022-11-16T16:59:56.566Z,14.07
2022-11-16T17:03:59.600Z,20.97
2022-11-16T17:07:59.940Z,16.87
2022-11-16T17:12:00.063Z,15.70
2022-11-16T17:16:00.248Z,22.47
2022-11-16T17:20:03.666Z,39.33
2022-11-16T17:24:03.842Z,39.80
2022-11-16T17:28:03.952Z,30.00
2022-11-16T17:32:04.687Z,22.63
2022-11-16T17:36:10.148Z,20.07
2022-11-16T17:40:21.182Z,18.60
2022-11-16T17:44:31.156Z,28.87
2022-11-16T17:48:36.367Z,28.37
2022-11-16T17:52:46.103Z,28.83
2022-11-16T17:56:47.528Z,25.57
2022-11-16T18:00:52.330Z,30.97
2022-11-16T18:04:55.600Z,26.87
2022-11-16T18:09:04.429Z,23.20
2022-11-16T18:13:06.821Z,21.50
2022-11-16T18:17:13.390Z,26.00
2022-11-16T18:21:23.601Z,24.83
2022-11-16T18:26:15.150Z,22.50
2022-11-16T18:36:53.376Z,20.87
2022-11-16T18:53:00.584Z,15.67
2022-11-16T19:07:42.179Z,29.67
2022-11-16T19:12:02.181Z,27.20
2022-11-16T19:16:06.027Z,25.47
2022-11-16T19:20:08.186Z,22.73
2022-11-16T19:24:17.213Z,19.27
2022-11-16T19:28:20.114Z,24.07
2022-11-16T19:32:22.871Z,23.70
2022-11-16T19:36:23.786Z,23.90
2022-11-16T19:40:25.262Z,24.77
2022-11-16T19:44:25.545Z,50.07
2022-11-16T19:48:28.349Z,36.93
2022-11-16T19:52:28.480Z,33.50
2022-11-16T19:56:28.662Z,20.57
2022-11-16T20:00:29.090Z,25.40
2022-11-16T20:04:34.417Z,20.40
2022-11-16T20:08:34.594Z,18.50
2022-11-16T20:12:34.872Z,19.97
2022-11-16T20:16:39.201Z,24.43
2022-11-16T20:20:42.245Z,32.93
2022-11-16T20:24:42.413Z,30.00
2022-11-16T20:28:45.733Z,20.93
2022-11-16T20:32:46.160Z,21.93
2022-11-16T20:36:51.352Z,21.87
2022-11-16T20:40:51.758Z,21.77
2022-11-16T20:44:52.087Z,20.80
2022-11-16T20:48:52.841Z,20.63
2022-11-16T20:52:55.548Z,22.37
2022-11-16T20:56:55.699Z,17.70
2022-11-16T21:00:55.867Z,19.27
2022-11-16T21:05:00.040Z,18.17
2022-11-16T21:09:04.797Z,17.17
2022-11-16T21:13:17.438Z,17.47
2022-11-16T21:17:20.701Z,18.20
2022-11-16T21:21:20.989Z,21.10
2022-11-16T21:25:24.200Z,22.03
2022-11-16T21:29:26.067Z,22.07
2022-11-16T21:33:26.456Z,21.80
2022-11-16T21:37:27.218Z,21.27
2022-11-16T21:41:30.715Z,20.57
2022-11-16T21:45:30.828Z,21.50
2022-11-16T21:49:30.875Z,22.13
2022-11-16T21:53:31.061Z,21.93
2022-11-16T21:57:34.015Z,21.00
2022-11-16T22:01:54.167Z,21.07
2022-11-16T22:06:11.831Z,21.10
2022-11-16T22:10:15.289Z,20.13
2022-11-16T22:14:17.970Z,19.07
2022-11-16T22:18:18.215Z,19.73
2022-11-16T22:22:18.439Z,17.20
2022-11-16T22:26:18.540Z,16.50
2022-11-16T22:30:21.912Z,17.60
2022-11-16T22:34:22.073Z,16.87
2022-11-16T22:38:22.187Z,16.53
2022-11-16T22:42:22.592Z,16.77
2022-11-16T22:46:25.377Z,16.47
2022-11-16T22:50:26.283Z,15.27
2022-11-16T22:54:28.713Z,15.07
2022-11-16T22:58:29.558Z,14.13
2022-11-16T23:02:32.293Z,13.90
2022-11-16T23:06:32.543Z,12.70
2022-11-16T23:10:52.772Z,14.03
2022-11-16T23:15:05.310Z,13.90
2022-11-16T23:19:29.654Z,13.43
2022-11-16T23:23:42.215Z,14.30
2022-11-16T23:27:52.897Z,16.03
2022-11-16T23:31:52.998Z,14.17
2022-11-16T23:35:55.620Z,15.73
2022-11-16T23:39:55.843Z,17.10
2022-11-16T23:43:59.324Z,15.00
2022-11-16T23:47:59.430Z,16.27
2022-11-16T23:52:02.101Z,16.73
2022-11-16T23:56:06.318Z,15.20
